sensor_id;sensor_type;location;lat;lon;timestamp;pressure;altitude;pressure_sealevel;temperature;humidity
27304;BME280;14791;52.392;13.092;2023-04-15T00:01:10;100162.35;;;13.54;58.77
27304;BME280;14791;52.392;13.092;2023-04-15T00:03:41;100156.87;;;13.55;58.75
27304;BME280;14791;52.392;13.092;2023-04-15T00:06:10;100158.56;;;13.56;58.76
27304;BME280;14791;52.392;13.092;2023-04-15T00:08:40;100153.92;;;13.58;58.84
27304;BME280;14791;52.392;13.092;2023-04-15T00:11:10;100150.13;;;13.61;58.80
27304;BME280;14791;52.392;13.092;2023-04-15T00:13:39;100148.78;;;13.61;58.76
27304;BME280;14791;52.392;13.092;2023-04-15T00:16:09;100148.17;;;13.63;58.74
27304;BME280;14791;52.392;13.092;2023-04-15T00:18:38;100147.56;;;13.65;58.75
27304;BME280;14791;52.392;13.092;2023-04-15T00:21:07;100149.13;;;13.68;58.77
27304;BME280;14791;52.392;13.092;2023-04-15T00:23:36;100143.99;;;13.70;58.71
27304;BME280;14791;52.392;13.092;2023-04-15T00:26:05;100142.50;;;13.72;58.62
27304;BME280;14791;52.392;13.092;2023-04-15T00:28:35;100136.17;;;13.73;58.52
27304;BME280;14791;52.392;13.092;2023-04-15T00:31:04;100133.84;;;13.74;58.54
27304;BME280;14791;52.392;13.092;2023-04-15T00:33:33;100132.88;;;13.75;58.58
27304;BME280;14791;52.392;13.092;2023-04-15T00:36:05;100132.37;;;13.75;58.67
27304;BME280;14791;52.392;13.092;2023-04-15T00:38:36;100128.35;;;13.75;58.71
27304;BME280;14791;52.392;13.092;2023-04-15T00:41:06;100133.11;;;13.77;58.80
27304;BME280;14791;52.392;13.092;2023-04-15T00:43:35;100130.15;;;13.80;58.82
27304;BME280;14791;52.392;13.092;2023-04-15T00:46:05;100134.41;;;13.83;58.67
27304;BME280;14791;52.392;13.092;2023-04-15T00:48:35;100129.41;;;13.84;58.63
27304;BME280;14791;52.392;13.092;2023-04-15T00:51:06;100129.41;;;13.84;58.70
27304;BME280;14791;52.392;13.092;2023-04-15T00:53:36;100127.92;;;13.86;58.64
27304;BME280;14791;52.392;13.092;2023-04-15T00:56:06;100126.08;;;13.86;58.64
27304;BME280;14791;52.392;13.092;2023-04-15T00:58:35;100130.84;;;13.88;58.69
27304;BME280;14791;52.392;13.092;2023-04-15T01:01:04;100128.03;;;13.90;58.75
27304;BME280;14791;52.392;13.092;2023-04-15T01:03:33;100131.06;;;13.91;58.82
27304;BME280;14791;52.392;13.092;2023-04-15T01:06:03;100126.80;;;13.94;58.81
27304;BME280;14791;52.392;13.092;2023-04-15T01:08:32;100127.87;;;13.97;58.78
27304;BME280;14791;52.392;13.092;2023-04-15T01:11:03;100121.04;;;13.98;58.78
27304;BME280;14791;52.392;13.092;2023-04-15T01:13:33;100120.27;;;14.02;58.69
27304;BME280;14791;52.392;13.092;2023-04-15T01:16:02;100113.90;;;14.03;58.58
27304;BME280;14791;52.392;13.092;2023-04-15T01:18:31;100112.55;;;14.03;58.59
27304;BME280;14791;52.392;13.092;2023-04-15T01:21:01;100123.30;;;14.03;58.61
27304;BME280;14791;52.392;13.092;2023-04-15T01:23:32;100125.02;;;14.04;58.62
27304;BME280;14791;52.392;13.092;2023-04-15T01:26:01;100119.99;;;14.05;58.55
27304;BME280;14791;52.392;13.092;2023-04-15T01:28:33;100114.63;;;14.05;58.57
27304;BME280;14791;52.392;13.092;2023-04-15T01:31:10;100113.28;;;14.05;58.52
27304;BME280;14791;52.392;13.092;2023-04-15T01:33:38;100120.87;;;14.06;58.53
27304;BME280;14791;52.392;13.092;2023-04-15T01:36:09;100115.00;;;14.06;58.50
27304;BME280;14791;52.392;13.092;2023-04-15T01:38:38;100113.28;;;14.05;58.40
27304;BME280;14791;52.392;13.092;2023-04-15T01:41:07;100113.28;;;14.05;58.31
27304;BME280;14791;52.392;13.092;2023-04-15T01:43:36;100110.75;;;14.03;58.26
27304;BME280;14791;52.392;13.092;2023-04-15T01:46:05;100108.19;;;14.02;58.18
27304;BME280;14791;52.392;13.092;2023-04-15T01:48:34;100108.45;;;13.99;58.18
27304;BME280;14791;52.392;13.092;2023-04-15T01:51:04;100107.23;;;13.97;58.35
27304;BME280;14791;52.392;13.092;2023-04-15T01:53:33;100108.23;;;13.96;58.38
27304;BME280;14791;52.392;13.092;2023-04-15T01:56:03;100106.05;;;13.96;58.49
27304;BME280;14791;52.392;13.092;2023-04-15T01:58:32;100113.10;;;13.97;58.63
27304;BME280;14791;52.392;13.092;2023-04-15T02:01:01;100104.05;;;13.98;58.66
27304;BME280;14791;52.392;13.092;2023-04-15T02:03:32;100105.62;;;14.00;58.68
27304;BME280;14791;52.392;13.092;2023-04-15T02:06:01;100091.58;;;14.02;58.72
27304;BME280;14791;52.392;13.092;2023-04-15T02:08:31;100100.95;;;14.08;58.69
27304;BME280;14791;52.392;13.092;2023-04-15T02:11:00;100096.78;;;14.10;58.60
27304;BME280;14791;52.392;13.092;2023-04-15T02:13:29;100095.31;;;14.11;58.42
27304;BME280;14791;52.392;13.092;2023-04-15T02:15:58;100098.34;;;14.12;58.32
27304;BME280;14791;52.392;13.092;2023-04-15T02:18:27;100100.06;;;14.13;58.31
27304;BME280;14791;52.392;13.092;2023-04-15T02:20:56;100092.50;;;14.13;58.31
27304;BME280;14791;52.392;13.092;2023-04-15T02:23:25;100090.66;;;14.13;58.39
27304;BME280;14791;52.392;13.092;2023-04-15T02:25:54;100089.31;;;14.13;58.44
27304;BME280;14791;52.392;13.092;2023-04-15T02:28:23;100089.31;;;14.13;58.44
27304;BME280;14791;52.392;13.092;2023-04-15T02:30:52;100091.51;;;14.14;58.36
27304;BME280;14791;52.392;13.092;2023-04-15T02:33:23;100088.82;;;14.14;58.36
27304;BME280;14791;52.392;13.092;2023-04-15T02:35:52;100088.09;;;14.12;58.46
27304;BME280;14791;52.392;13.092;2023-04-15T02:38:21;100091.63;;;14.12;58.54
27304;BME280;14791;52.392;13.092;2023-04-15T02:40:50;100089.31;;;14.13;58.53
27304;BME280;14791;52.392;13.092;2023-04-15T02:43:19;100091.51;;;14.14;58.51
27304;BME280;14791;52.392;13.092;2023-04-15T02:45:48;100092.35;;;14.14;58.56
27304;BME280;14791;52.392;13.092;2023-04-15T02:48:18;100091.73;;;14.16;58.53
27304;BME280;14791;52.392;13.092;2023-04-15T02:50:47;100094.41;;;14.16;58.51
27304;BME280;14791;52.392;13.092;2023-04-15T02:53:16;100094.41;;;14.16;58.42
27304;BME280;14791;52.392;13.092;2023-04-15T02:55:46;100097.95;;;14.17;58.45
27304;BME280;14791;52.392;13.092;2023-04-15T02:58:15;100093.07;;;14.16;58.49
27304;BME280;14791;52.392;13.092;2023-04-15T03:00:44;100090.73;;;14.17;58.51
27304;BME280;14791;52.392;13.092;2023-04-15T03:03:13;100095.14;;;14.18;58.48
27304;BME280;14791;52.392;13.092;2023-04-15T03:05:43;100090.61;;;14.19;58.34
27304;BME280;14791;52.392;13.092;2023-04-15T03:08:12;100098.17;;;14.19;58.28
27304;BME280;14791;52.392;13.092;2023-04-15T03:10:41;100100.51;;;14.18;58.32
27304;BME280;14791;52.392;13.092;2023-04-15T03:13:10;100096.10;;;14.17;58.37
27304;BME280;14791;52.392;13.092;2023-04-15T03:15:40;100096.76;;;14.15;58.40
27304;BME280;14791;52.392;13.092;2023-04-15T03:18:09;100095.41;;;14.15;58.46
27304;BME280;14791;52.392;13.092;2023-04-15T03:20:38;100090.89;;;14.16;58.43
27304;BME280;14791;52.392;13.092;2023-04-15T03:23:07;100085.36;;;14.17;58.43
27304;BME280;14791;52.392;13.092;2023-04-15T03:25:36;100091.61;;;14.18;58.47
27304;BME280;14791;52.392;13.092;2023-04-15T03:28:06;100097.70;;;14.20;58.43
27304;BME280;14791;52.392;13.092;2023-04-15T03:30:35;100094.52;;;14.20;58.38
27304;BME280;14791;52.392;13.092;2023-04-15T03:33:04;100098.89;;;14.21;58.37
27304;BME280;14791;52.392;13.092;2023-04-15T03:35:34;100104.98;;;14.23;58.41
27304;BME280;14791;52.392;13.092;2023-04-15T03:38:03;100101.68;;;14.25;58.37
27304;BME280;14791;52.392;13.092;2023-04-15T03:40:31;100100.56;;;14.28;58.27
27304;BME280;14791;52.392;13.092;2023-04-15T03:43:00;100104.09;;;14.29;58.28
27304;BME280;14791;52.392;13.092;2023-04-15T03:45:29;100102.24;;;14.29;58.22
27304;BME280;14791;52.392;13.092;2023-04-15T03:47:58;100094.56;;;14.30;58.20
27304;BME280;14791;52.392;13.092;2023-04-15T03:50:27;100092.10;;;14.33;58.20
27304;BME280;14791;52.392;13.092;2023-04-15T03:52:56;100095.63;;;14.33;58.12
27304;BME280;14791;52.392;13.092;2023-04-15T03:55:25;100095.28;;;14.32;58.10
27304;BME280;14791;52.392;13.092;2023-04-15T03:57:54;100100.16;;;14.33;58.19
27304;BME280;14791;52.392;13.092;2023-04-15T04:00:23;100093.94;;;14.32;58.27
27304;BME280;14791;52.392;13.092;2023-04-15T04:02:52;100095.63;;;14.33;58.33
27304;BME280;14791;52.392;13.092;2023-04-15T04:05:21;100103.91;;;14.36;58.25
27304;BME280;14791;52.392;13.092;2023-04-15T04:07:49;100106.97;;;14.37;58.33
27304;BME280;14791;52.392;13.092;2023-04-15T04:10:18;100102.29;;;14.39;58.47
27304;BME280;14791;52.392;13.092;2023-04-15T04:12:47;100097.64;;;14.41;58.39
27304;BME280;14791;52.392;13.092;2023-04-15T04:15:16;100092.98;;;14.43;58.41
27304;BME280;14791;52.392;13.092;2023-04-15T04:17:45;100100.08;;;14.44;58.33
27304;BME280;14791;52.392;13.092;2023-04-15T04:20:14;100098.95;;;14.46;58.33
27304;BME280;14791;52.392;13.092;2023-04-15T04:22:43;100105.52;;;14.48;58.37
27304;BME280;14791;52.392;13.092;2023-04-15T04:25:12;100104.89;;;14.50;58.36
27304;BME280;14791;52.392;13.092;2023-04-15T04:27:41;100111.98;;;14.51;58.41
27304;BME280;14791;52.392;13.092;2023-04-15T04:30:10;100108.30;;;14.52;58.35
27304;BME280;14791;52.392;13.092;2023-04-15T04:32:39;100113.08;;;14.54;58.33
27304;BME280;14791;52.392;13.092;2023-04-15T04:35:09;100112.58;;;14.55;58.39
27304;BME280;14791;52.392;13.092;2023-04-15T04:37:38;100114.15;;;14.57;58.42
27304;BME280;14791;52.392;13.092;2023-04-15T04:40:08;100114.87;;;14.59;58.45
27304;BME280;14791;52.392;13.092;2023-04-15T04:42:37;100115.59;;;14.61;58.38
27304;BME280;14791;52.392;13.092;2023-04-15T04:45:06;100113.24;;;14.62;58.33
27304;BME280;14791;52.392;13.092;2023-04-15T04:47:36;100116.80;;;14.63;58.28
27304;BME280;14791;52.392;13.092;2023-04-15T04:50:05;100118.49;;;14.64;58.23
27304;BME280;14791;52.392;13.092;2023-04-15T04:52:36;100110.30;;;14.65;58.28
27304;BME280;14791;52.392;13.092;2023-04-15T04:55:05;100113.00;;;14.65;58.28
27304;BME280;14791;52.392;13.092;2023-04-15T04:57:35;100116.74;;;14.68;58.25
27304;BME280;14791;52.392;13.092;2023-04-15T05:00:07;100114.78;;;14.71;58.31
27304;BME280;14791;52.392;13.092;2023-04-15T05:02:36;100115.50;;;14.73;58.32
27304;BME280;14791;52.392;13.092;2023-04-15T05:05:06;100116.18;;;14.75;58.31
27304;BME280;14791;52.392;13.092;2023-04-15T05:07:35;100119.46;;;14.78;58.22
27304;BME280;14791;52.392;13.092;2023-04-15T05:10:05;100117.12;;;14.79;58.22
27304;BME280;14791;52.392;13.092;2023-04-15T05:12:35;100121.03;;;14.81;58.22
27304;BME280;14791;52.392;13.092;2023-04-15T05:15:06;100123.44;;;14.84;58.17
27304;BME280;14791;52.392;13.092;2023-04-15T05:17:35;100119.77;;;14.85;58.20
27304;BME280;14791;52.392;13.092;2023-04-15T05:20:04;100119.15;;;14.87;58.16
27304;BME280;14791;52.392;13.092;2023-04-15T05:22:33;100120.20;;;14.90;58.05
27304;BME280;14791;52.392;13.092;2023-04-15T05:25:03;100125.93;;;14.91;58.11
27304;BME280;14791;52.392;13.092;2023-04-15T05:27:32;100124.96;;;14.92;58.12
27304;BME280;14791;52.392;13.092;2023-04-15T05:30:01;100122.98;;;14.94;58.11
27304;BME280;14791;52.392;13.092;2023-04-15T05:32:29;100125.52;;;14.96;58.05
27304;BME280;14791;52.392;13.092;2023-04-15T05:34:58;100129.27;;;14.99;58.08
27304;BME280;14791;52.392;13.092;2023-04-15T05:37:27;100130.86;;;15.01;58.06
27304;BME280;14791;52.392;13.092;2023-04-15T05:39:57;100136.08;;;15.03;58.02
27304;BME280;14791;52.392;13.092;2023-04-15T05:42:25;100134.95;;;15.05;58.01
27304;BME280;14791;52.392;13.092;2023-04-15T05:44:54;100137.52;;;15.07;58.05
27304;BME280;14791;52.392;13.092;2023-04-15T05:47:23;100137.39;;;15.08;58.09
27304;BME280;14791;52.392;13.092;2023-04-15T05:49:53;100141.48;;;15.13;58.08
27304;BME280;14791;52.392;13.092;2023-04-15T05:52:22;100149.30;;;15.16;58.05
27304;BME280;14791;52.392;13.092;2023-04-15T05:54:51;100138.38;;;15.17;58.05
27304;BME280;14791;52.392;13.092;2023-04-15T05:57:20;100137.25;;;15.20;58.03
27304;BME280;14791;52.392;13.092;2023-04-15T05:59:49;100139.31;;;15.22;58.05
27304;BME280;14791;52.392;13.092;2023-04-15T06:02:20;100137.67;;;15.25;58.11
27304;BME280;14791;52.392;13.092;2023-04-15T06:04:49;100137.42;;;15.28;58.14
27304;BME280;14791;52.392;13.092;2023-04-15T06:07:19;100141.17;;;15.31;58.21
27304;BME280;14791;52.392;13.092;2023-04-15T06:09:47;100142.44;;;15.37;58.24
27304;BME280;14791;52.392;13.092;2023-04-15T06:12:16;100140.55;;;15.43;58.28
27304;BME280;14791;52.392;13.092;2023-04-15T06:14:45;100140.47;;;15.48;58.35
27304;BME280;14791;52.392;13.092;2023-04-15T06:17:14;100137.57;;;15.56;58.33
27304;BME280;14791;52.392;13.092;2023-04-15T06:19:45;100137.02;;;15.62;58.39
27304;BME280;14791;52.392;13.092;2023-04-15T06:22:13;100134.11;;;15.69;58.38
27304;BME280;14791;52.392;13.092;2023-04-15T06:24:43;100145.04;;;15.77;58.23
27304;BME280;14791;52.392;13.092;2023-04-15T06:27:11;100140.45;;;15.83;58.07
27304;BME280;14791;52.392;13.092;2023-04-15T06:29:40;100142.55;;;15.89;57.98
27304;BME280;14791;52.392;13.092;2023-04-15T06:32:09;100142.96;;;15.94;57.87
27304;BME280;14791;52.392;13.092;2023-04-15T06:34:39;100143.41;;;16.00;57.76
27304;BME280;14791;52.392;13.092;2023-04-15T06:37:08;100146.14;;;16.04;57.68
27304;BME280;14791;52.392;13.092;2023-04-15T06:39:42;100143.52;;;16.08;57.75
27304;BME280;14791;52.392;13.092;2023-04-15T06:42:11;100145.92;;;16.11;57.70
27304;BME280;14791;52.392;13.092;2023-04-15T06:44:41;100155.13;;;16.18;57.75
27304;BME280;14791;52.392;13.092;2023-04-15T06:47:10;100155.06;;;16.24;57.80
27304;BME280;14791;52.392;13.092;2023-04-15T06:49:41;100163.05;;;16.29;57.73
27304;BME280;14791;52.392;13.092;2023-04-15T06:52:10;100166.02;;;16.36;57.70
27304;BME280;14791;52.392;13.092;2023-04-15T06:54:39;100172.02;;;16.44;57.69
27304;BME280;14791;52.392;13.092;2023-04-15T06:57:08;100174.48;;;16.51;57.67
27304;BME280;14791;52.392;13.092;2023-04-15T06:59:37;100170.55;;;16.59;57.64
27304;BME280;14791;52.392;13.092;2023-04-15T07:02:07;100173.00;;;16.66;57.58
27304;BME280;14791;52.392;13.092;2023-04-15T07:04:38;100178.02;;;16.75;57.45
27304;BME280;14791;52.392;13.092;2023-04-15T07:07:07;100183.20;;;16.82;57.40
27304;BME280;14791;52.392;13.092;2023-04-15T07:09:36;100185.66;;;16.89;57.40
27304;BME280;14791;52.392;13.092;2023-04-15T07:12:05;100187.60;;;16.97;57.32
27304;BME280;14791;52.392;13.092;2023-04-15T07:14:34;100190.76;;;17.06;57.25
27304;BME280;14791;52.392;13.092;2023-04-15T07:17:03;100192.23;;;17.14;57.29
27304;BME280;14791;52.392;13.092;2023-04-15T07:19:32;100189.94;;;17.23;57.19
27304;BME280;14791;52.392;13.092;2023-04-15T07:22:01;100180.95;;;17.33;57.09
27304;BME280;14791;52.392;13.092;2023-04-15T07:24:30;100188.14;;;17.42;57.08
27304;BME280;14791;52.392;13.092;2023-04-15T07:26:59;100187.56;;;17.52;56.94
27304;BME280;14791;52.392;13.092;2023-04-15T07:29:28;100190.70;;;17.61;56.89
27304;BME280;14791;52.392;13.092;2023-04-15T07:31:58;100198.39;;;17.70;56.72
27304;BME280;14791;52.392;13.092;2023-04-15T07:34:27;100199.67;;;17.80;56.56
27304;BME280;14791;52.392;13.092;2023-04-15T07:36:55;100199.76;;;17.88;56.41
27304;BME280;14791;52.392;13.092;2023-04-15T07:39:24;100202.55;;;17.96;56.11
27304;BME280;14791;52.392;13.092;2023-04-15T07:41:54;100203.27;;;18.02;55.75
27304;BME280;14791;52.392;13.092;2023-04-15T07:44:23;100209.05;;;18.07;55.44
27304;BME280;14791;52.392;13.092;2023-04-15T07:46:52;100203.35;;;18.11;55.13
27304;BME280;14791;52.392;13.092;2023-04-15T07:49:21;100202.00;;;18.11;54.99
27304;BME280;14791;52.392;13.092;2023-04-15T07:51:50;100201.49;;;18.11;54.73
27304;BME280;14791;52.392;13.092;2023-04-15T07:54:19;100204.34;;;18.10;54.57
27304;BME280;14791;52.392;13.092;2023-04-15T07:56:48;100201.45;;;18.07;54.58
27304;BME280;14791;52.392;13.092;2023-04-15T07:59:17;100212.77;;;18.06;54.57
27304;BME280;14791;52.392;13.092;2023-04-15T08:01:46;100215.14;;;18.05;54.49
27304;BME280;14791;52.392;13.092;2023-04-15T08:04:16;100220.03;;;18.06;54.57
27304;BME280;14791;52.392;13.092;2023-04-15T08:06:44;100215.14;;;18.05;54.58
27304;BME280;14791;52.392;13.092;2023-04-15T08:09:15;100217.66;;;18.07;54.48
27304;BME280;14791;52.392;13.092;2023-04-15T08:11:44;100220.22;;;18.09;54.24
27304;BME280;14791;52.392;13.092;2023-04-15T08:14:13;100217.52;;;18.09;53.98
27304;BME280;14791;52.392;13.092;2023-04-15T08:16:42;100224.59;;;18.05;53.94
27304;BME280;14791;52.392;13.092;2023-04-15T08:19:11;100225.25;;;18.03;53.84
27304;BME280;14791;52.392;13.092;2023-04-15T08:21:40;100232.29;;;18.00;53.77
27304;BME280;14791;52.392;13.092;2023-04-15T08:24:09;100226.87;;;17.96;53.77
27304;BME280;14791;52.392;13.092;2023-04-15T08:26:38;100225.81;;;17.93;53.77
27304;BME280;14791;52.392;13.092;2023-04-15T08:29:07;100226.48;;;17.91;53.71
27304;BME280;14791;52.392;13.092;2023-04-15T08:31:36;100230.83;;;17.88;53.74
27304;BME280;14791;52.392;13.092;2023-04-15T08:34:05;100233.20;;;17.87;53.67
27304;BME280;14791;52.392;13.092;2023-04-15T08:36:34;100239.75;;;17.84;53.53
27304;BME280;14791;52.392;13.092;2023-04-15T08:39:03;100230.73;;;17.80;53.44
27304;BME280;14791;52.392;13.092;2023-04-15T08:41:45;100242.33;;;17.76;53.46
27304;BME280;14791;52.392;13.092;2023-04-15T08:44:05;100243.48;;;17.74;53.44
27304;BME280;14791;52.392;13.092;2023-04-15T08:46:34;100245.80;;;17.69;53.62
27304;BME280;14791;52.392;13.092;2023-04-15T08:49:03;100244.76;;;17.65;53.63
27304;BME280;14791;52.392;13.092;2023-04-15T08:51:34;100256.91;;;17.65;53.68
27304;BME280;14791;52.392;13.092;2023-04-15T08:54:03;100257.89;;;17.64;53.67
27304;BME280;14791;52.392;13.092;2023-04-15T08:56:33;100262.31;;;17.65;53.71
27304;BME280;14791;52.392;13.092;2023-04-15T08:59:03;100267.72;;;17.65;53.71
27304;BME280;14791;52.392;13.092;2023-04-15T09:01:33;100260.12;;;17.65;53.72
27304;BME280;14791;52.392;13.092;2023-04-15T09:04:03;100263.16;;;17.66;53.72
27304;BME280;14791;52.392;13.092;2023-04-15T09:06:34;100271.26;;;17.66;53.57
27304;BME280;14791;52.392;13.092;2023-04-15T09:09:03;100266.36;;;17.65;53.64
27304;BME280;14791;52.392;13.092;2023-04-15T09:11:32;100267.72;;;17.65;53.66
27304;BME280;14791;52.392;13.092;2023-04-15T09:14:02;100265.34;;;17.67;53.55
27304;BME280;14791;52.392;13.092;2023-04-15T09:16:31;100268.70;;;17.64;53.37
27304;BME280;14791;52.392;13.092;2023-04-15T09:19:01;100268.36;;;17.63;53.42
27304;BME280;14791;52.392;13.092;2023-04-15T09:21:31;100271.56;;;17.63;53.42
27304;BME280;14791;52.392;13.092;2023-04-15T09:24:00;100268.67;;;17.60;53.42
27304;BME280;14791;52.392;13.092;2023-04-15T09:29:08;100272.73;;;17.60;53.36
27304;BME280;14791;52.392;13.092;2023-04-15T09:31:38;100274.35;;;17.57;53.36
27304;BME280;14791;52.392;13.092;2023-04-15T09:34:07;100282.12;;;17.56;53.34
27304;BME280;14791;52.392;13.092;2023-04-15T09:39:17;100282.12;;;17.56;53.29
27304;BME280;14791;52.392;13.092;2023-04-15T09:41:46;100289.52;;;17.54;53.31
27304;BME280;14791;52.392;13.092;2023-04-15T09:44:23;100289.88;;;17.55;53.31
27304;BME280;14791;52.392;13.092;2023-04-15T09:46:52;100287.83;;;17.53;53.25
27304;BME280;14791;52.392;13.092;2023-04-15T09:49:21;100297.55;;;17.50;53.27
27304;BME280;14791;52.392;13.092;2023-04-15T09:51:50;100296.38;;;17.49;53.30
27304;BME280;14791;52.392;13.092;2023-04-15T09:54:20;100295.53;;;17.48;53.31
27304;BME280;14791;52.392;13.092;2023-04-15T09:56:49;100303.27;;;17.47;53.43
27304;BME280;14791;52.392;13.092;2023-04-15T09:59:18;100304.28;;;17.46;53.56
27304;BME280;14791;52.392;13.092;2023-04-15T10:01:47;100305.26;;;17.45;53.66
27304;BME280;14791;52.392;13.092;2023-04-15T10:04:16;100308.66;;;17.47;53.85
27304;BME280;14791;52.392;13.092;2023-04-15T10:06:45;100309.17;;;17.47;53.91
27304;BME280;14791;52.392;13.092;2023-04-15T10:09:14;100312.71;;;17.47;54.06
27304;BME280;14791;52.392;13.092;2023-04-15T10:11:45;100315.78;;;17.48;54.12
27304;BME280;14791;52.392;13.092;2023-04-15T10:14:17;100318.11;;;17.47;54.17
27304;BME280;14791;52.392;13.092;2023-04-15T10:16:47;100317.78;;;17.46;54.15
27304;BME280;14791;52.392;13.092;2023-04-15T10:19:18;100319.13;;;17.46;54.26
27304;BME280;14791;52.392;13.092;2023-04-15T10:21:49;100322.98;;;17.43;54.28
27304;BME280;14791;52.392;13.092;2023-04-15T10:24:19;100325.81;;;17.42;54.32
27304;BME280;14791;52.392;13.092;2023-04-15T10:26:50;100329.16;;;17.40;54.25
27304;BME280;14791;52.392;13.092;2023-04-15T10:29:19;100325.75;;;17.38;54.32
27304;BME280;14791;52.392;13.092;2023-04-15T10:31:48;100327.77;;;17.36;54.33
27304;BME280;14791;52.392;13.092;2023-04-15T10:34:18;100327.55;;;17.33;54.33
27304;BME280;14791;52.392;13.092;2023-04-15T10:36:47;100331.39;;;17.31;54.47
27304;BME280;14791;52.392;13.092;2023-04-15T10:39:38;100336.11;;;17.29;54.52
27304;BME280;14791;52.392;13.092;2023-04-15T10:42:16;100340.80;;;17.27;54.74
27304;BME280;14791;52.392;13.092;2023-04-15T10:44:50;100343.09;;;17.21;55.08
27304;BME280;14791;52.392;13.092;2023-04-15T10:47:20;100341.69;;;17.17;55.30
27304;BME280;14791;52.392;13.092;2023-04-15T10:49:57;100340.67;;;17.18;55.46
27304;BME280;14791;52.392;13.092;2023-04-15T10:52:28;100343.58;;;17.21;55.34
27304;BME280;14791;52.392;13.092;2023-04-15T10:57:42;100343.44;;;17.22;55.34
27304;BME280;14791;52.392;13.092;2023-04-15T11:00:12;100339.69;;;17.19;55.46
27304;BME280;14791;52.392;13.092;2023-04-15T11:02:44;100344.58;;;17.20;55.51
27304;BME280;14791;52.392;13.092;2023-04-15T11:05:15;100348.13;;;17.20;55.63
27304;BME280;14791;52.392;13.092;2023-04-15T11:07:50;100349.34;;;17.22;55.81
27304;BME280;14791;52.392;13.092;2023-04-15T11:12:59;100348.26;;;17.29;55.85
27304;BME280;14791;52.392;13.092;2023-04-15T11:18:18;100356.90;;;17.32;55.96
27304;BME280;14791;52.392;13.092;2023-04-15T11:20:53;100358.11;;;17.34;55.83
27304;BME280;14791;52.392;13.092;2023-04-15T11:23:43;100361.79;;;17.33;55.85
27304;BME280;14791;52.392;13.092;2023-04-15T11:26:13;100363.84;;;17.35;55.89
27304;BME280;14791;52.392;13.092;2023-04-15T11:28:44;100366.85;;;17.32;55.99
27304;BME280;14791;52.392;13.092;2023-04-15T11:31:15;100370.59;;;17.35;55.92
27304;BME280;14791;52.392;13.092;2023-04-15T11:33:55;100373.66;;;17.36;56.04
27304;BME280;14791;52.392;13.092;2023-04-15T11:36:27;100371.17;;;17.38;56.06
27304;BME280;14791;52.392;13.092;2023-04-15T11:38:58;100381.80;;;17.40;56.10
27304;BME280;14791;52.392;13.092;2023-04-15T11:41:27;100378.45;;;17.42;56.05
27304;BME280;14791;52.392;13.092;2023-04-15T11:43:56;100377.81;;;17.44;56.00
27304;BME280;14791;52.392;13.092;2023-04-15T11:46:29;100384.90;;;17.45;55.96
27304;BME280;14791;52.392;13.092;2023-04-15T11:48:58;100391.38;;;17.48;56.00
27304;BME280;14791;52.392;13.092;2023-04-15T11:51:32;100388.31;;;17.47;55.98
27304;BME280;14791;52.392;13.092;2023-04-15T11:54:01;100393.20;;;17.48;55.98
27304;BME280;14791;52.392;13.092;2023-04-15T11:56:30;100392.53;;;17.46;56.03
27304;BME280;14791;52.392;13.092;2023-04-15T11:58:59;100399.11;;;17.47;56.02
27304;BME280;14791;52.392;13.092;2023-04-15T12:04:16;100404.17;;;17.46;55.96
27304;BME280;14791;52.392;13.092;2023-04-15T12:06:41;100406.16;;;17.44;55.96
27304;BME280;14791;52.392;13.092;2023-04-15T12:09:14;100403.77;;;17.41;56.12
27304;BME280;14791;52.392;13.092;2023-04-15T12:11:45;100406.47;;;17.41;56.26
27304;BME280;14791;52.392;13.092;2023-04-15T12:14:28;100409.16;;;17.41;56.31
27304;BME280;14791;52.392;13.092;2023-04-15T12:17:06;100412.06;;;17.43;56.43
27304;BME280;14791;52.392;13.092;2023-04-15T12:19:36;100407.52;;;17.44;56.57
27304;BME280;14791;52.392;13.092;2023-04-15T12:22:11;100415.31;;;17.47;56.63
27304;BME280;14791;52.392;13.092;2023-04-15T12:24:42;100420.91;;;17.50;56.60
27304;BME280;14791;52.392;13.092;2023-04-15T12:27:15;100418.78;;;17.53;56.51
27304;BME280;14791;52.392;13.092;2023-04-15T12:29:44;100420.84;;;17.55;56.42
27304;BME280;14791;52.392;13.092;2023-04-15T12:32:14;100421.52;;;17.57;56.57
27304;BME280;14791;52.392;13.092;2023-04-15T12:34:51;100426.48;;;17.62;56.72
27304;BME280;14791;52.392;13.092;2023-04-15T12:37:22;100432.45;;;17.65;56.76
27304;BME280;14791;52.392;13.092;2023-04-15T12:39:51;100430.80;;;17.69;56.77
27304;BME280;14791;52.392;13.092;2023-04-15T12:42:21;100434.91;;;17.73;56.72
27304;BME280;14791;52.392;13.092;2023-04-15T12:44:50;100437.00;;;17.79;56.79
27304;BME280;14791;52.392;13.092;2023-04-15T12:47:19;100435.75;;;17.83;56.83
27304;BME280;14791;52.392;13.092;2023-04-15T12:49:48;100434.45;;;17.87;56.84
27304;BME280;14791;52.392;13.092;2023-04-15T12:52:17;100443.30;;;17.93;56.78
27304;BME280;14791;52.392;13.092;2023-04-15T12:54:46;100441.03;;;17.98;56.80
27304;BME280;14791;52.392;13.092;2023-04-15T12:57:15;100442.12;;;18.05;56.88
27304;BME280;14791;52.392;13.092;2023-04-15T12:59:43;100450.46;;;18.12;56.76
27304;BME280;14791;52.392;13.092;2023-04-15T13:02:12;100454.58;;;18.16;56.83
27304;BME280;14791;52.392;13.092;2023-04-15T13:04:42;100454.83;;;18.23;56.80
27304;BME280;14791;52.392;13.092;2023-04-15T13:07:11;100454.20;;;18.29;56.74
27304;BME280;14791;52.392;13.092;2023-04-15T13:09:41;100457.67;;;18.35;56.73